createdAt,value
2018-09-04T00:02:06.947Z,11.70
2018-09-04T00:04:35.134Z,11.43
2018-09-04T00:07:03.346Z,13.22
2018-09-04T00:09:31.519Z,12.43
2018-09-04T00:11:59.698Z,13.65
2018-09-04T00:14:27.888Z,14.03
2018-09-04T00:16:56.079Z,14.00
2018-09-04T00:19:24.249Z,12.18
2018-09-04T00:21:52.449Z,12.37
2018-09-04T00:24:20.621Z,13.45
2018-09-04T00:26:48.822Z,13.62
2018-09-04T00:29:17.002Z,13.25
2018-09-04T00:31:45.196Z,12.65
2018-09-04T00:34:13.425Z,13.13
2018-09-04T00:36:41.566Z,13.15
2018-09-04T00:39:09.745Z,13.20
2018-09-04T00:41:37.947Z,13.50
2018-09-04T00:44:06.125Z,13.08
2018-09-04T00:46:34.317Z,14.35
2018-09-04T00:49:02.498Z,13.35
2018-09-04T00:51:30.697Z,13.75
2018-09-04T00:53:58.866Z,13.58
2018-09-04T00:56:27.058Z,13.38
2018-09-04T00:58:55.264Z,11.85
2018-09-04T01:01:23.803Z,12.78
2018-09-04T01:03:51.990Z,12.60
2018-09-04T01:06:20.183Z,12.25
2018-09-04T01:08:48.382Z,13.32
2018-09-04T01:11:16.554Z,12.82
2018-09-04T01:13:46.721Z,12.50
2018-09-04T01:16:16.034Z,12.40
2018-09-04T01:18:44.194Z,11.83
2018-09-04T01:21:12.381Z,12.25
2018-09-04T01:23:40.802Z,12.07
2018-09-04T01:26:08.958Z,12.45
2018-09-04T01:28:37.142Z,11.95
2018-09-04T01:31:05.326Z,11.20
2018-09-04T01:33:33.511Z,12.43
2018-09-04T01:36:01.707Z,11.48
2018-09-04T01:38:29.894Z,11.28
2018-09-04T01:40:58.109Z,11.83
2018-09-04T01:43:26.262Z,11.70
2018-09-04T01:45:54.458Z,11.95
2018-09-04T01:48:22.627Z,11.60
2018-09-04T01:50:50.746Z,12.33
2018-09-04T01:53:18.826Z,11.60
2018-09-04T01:55:47.003Z,11.93
2018-09-04T01:58:15.178Z,12.25
2018-09-04T02:00:43.394Z,13.72
2018-09-04T02:03:11.575Z,12.85
2018-09-04T02:05:39.757Z,12.93
2018-09-04T02:08:07.955Z,12.40
2018-09-04T02:10:36.129Z,13.22
2018-09-04T02:13:04.317Z,13.48
2018-09-04T02:15:32.509Z,12.73
2018-09-04T02:18:00.717Z,12.47
2018-09-04T02:20:28.879Z,13.00
2018-09-04T02:22:57.082Z,13.28
2018-09-04T02:25:25.257Z,13.38
2018-09-04T02:27:53.445Z,14.33
2018-09-04T02:30:21.626Z,14.45
2018-09-04T02:32:49.820Z,14.07
2018-09-04T02:35:18.005Z,15.20
2018-09-04T02:37:46.190Z,16.60
2018-09-04T02:40:14.374Z,18.02
2018-09-04T02:42:42.574Z,18.05
2018-09-04T02:45:10.737Z,16.50
2018-09-04T02:47:38.946Z,17.32
2018-09-04T02:50:07.134Z,17.35
2018-09-04T02:52:35.318Z,17.73
2018-09-04T02:55:03.490Z,16.42
2018-09-04T02:57:31.683Z,17.10
2018-09-04T02:59:59.868Z,18.23
2018-09-04T03:02:28.067Z,19.15
2018-09-04T03:04:56.321Z,18.27
2018-09-04T03:07:24.433Z,17.60
2018-09-04T03:09:52.634Z,17.27
2018-09-04T03:12:20.810Z,16.52
2018-09-04T03:14:48.990Z,17.73
2018-09-04T03:17:17.189Z,18.10
2018-09-04T03:19:45.382Z,17.05
2018-09-04T03:22:13.557Z,15.78
2018-09-04T03:24:41.738Z,17.48
2018-09-04T03:27:09.947Z,20.15
2018-09-04T03:29:38.118Z,19.75
2018-09-04T03:32:06.478Z,20.50
2018-09-04T03:34:34.687Z,19.70
2018-09-04T03:37:02.893Z,19.48
2018-09-04T03:39:31.152Z,21.85
2018-09-04T03:41:59.264Z,19.52
2018-09-04T03:44:27.499Z,21.20
2018-09-04T03:46:55.639Z,21.02
2018-09-04T03:49:23.814Z,23.75
2018-09-04T03:51:52.018Z,23.22
2018-09-04T03:54:20.193Z,25.80
2018-09-04T03:56:48.373Z,25.97
2018-09-04T03:59:16.591Z,21.20
2018-09-04T04:01:45.072Z,21.33
2018-09-04T04:04:13.366Z,19.45
2018-09-04T04:06:41.528Z,19.57
2018-09-04T04:09:10.896Z,19.27
2018-09-04T04:11:39.145Z,20.37
2018-09-04T04:14:07.854Z,20.60
2018-09-04T04:16:36.018Z,20.85
2018-09-04T04:19:04.218Z,20.08
2018-09-04T04:21:32.398Z,20.17
2018-09-04T04:24:00.630Z,28.23
2018-09-04T04:26:28.746Z,28.25
2018-09-04T04:28:56.945Z,28.15
2018-09-04T04:31:25.129Z,27.20
2018-09-04T04:33:53.326Z,27.98
2018-09-04T04:36:21.497Z,28.55
2018-09-04T04:38:49.700Z,28.17
2018-09-04T04:41:17.871Z,27.67
2018-09-04T04:43:46.074Z,29.45
2018-09-04T04:46:14.249Z,27.82
2018-09-04T04:48:42.433Z,28.83
2018-09-04T04:51:10.617Z,26.87
2018-09-04T04:53:38.805Z,26.93
2018-09-04T04:56:06.994Z,27.22
2018-09-04T04:58:35.191Z,28.17
2018-09-04T05:01:03.503Z,26.45
2018-09-04T05:03:31.662Z,25.35
2018-09-04T05:05:59.843Z,24.07
2018-09-04T05:08:28.039Z,25.20
2018-09-04T05:10:57.152Z,27.32
2018-09-04T05:13:25.342Z,29.32
2018-09-04T05:15:53.506Z,30.57
2018-09-04T05:18:21.702Z,31.25
2018-09-04T05:20:49.883Z,31.20
2018-09-04T05:23:18.094Z,31.60
2018-09-04T05:25:46.276Z,31.75
2018-09-04T05:28:14.478Z,29.25
2018-09-04T05:30:42.647Z,28.47
2018-09-04T05:33:20.076Z,25.88
2018-09-04T05:35:51.022Z,24.90
2018-09-04T05:38:20.237Z,28.15
2018-09-04T05:40:48.401Z,28.57
2018-09-04T05:43:21.730Z,30.52
2018-09-04T05:45:49.906Z,31.07
2018-09-04T05:48:18.089Z,30.68
2018-09-04T05:50:46.266Z,24.63
2018-09-04T05:53:14.474Z,24.45
2018-09-04T05:55:42.648Z,25.27
2018-09-04T05:58:10.854Z,26.82
2018-09-04T06:00:48.870Z,29.05
2018-09-04T06:03:17.031Z,31.75
2018-09-04T06:05:45.246Z,32.75
2018-09-04T06:08:13.410Z,33.75
2018-09-04T06:10:41.605Z,31.95
2018-09-04T06:13:09.791Z,33.25
2018-09-04T06:15:37.977Z,29.48
2018-09-04T06:18:06.155Z,30.05
2018-09-04T06:20:34.351Z,30.10
2018-09-04T06:23:02.532Z,29.35
2018-09-04T06:25:30.744Z,30.15
2018-09-04T06:27:58.914Z,32.33
2018-09-04T06:30:27.102Z,29.52
2018-09-04T06:32:55.195Z,31.33
2018-09-04T06:35:23.374Z,30.77
2018-09-04T06:37:51.554Z,31.42
2018-09-04T06:40:19.742Z,31.75
2018-09-04T06:42:47.833Z,30.43
2018-09-04T06:45:16.018Z,30.50
2018-09-04T06:47:45.435Z,30.00
2018-09-04T06:50:13.633Z,30.90
2018-09-04T06:52:41.797Z,27.82
2018-09-04T06:55:10.003Z,27.55
2018-09-04T06:57:38.211Z,29.32
2018-09-04T07:00:08.819Z,30.48
2018-09-04T07:02:37.043Z,30.92
2018-09-04T07:05:05.784Z,30.15
2018-09-04T07:07:34.002Z,28.77
2018-09-04T07:10:02.194Z,28.45
2018-09-04T07:12:30.365Z,30.20
2018-09-04T07:14:58.504Z,28.92
2018-09-04T07:17:26.634Z,30.32
2018-09-04T07:19:54.835Z,32.45
2018-09-04T07:22:23.023Z,30.00
2018-09-04T07:24:51.208Z,31.00
2018-09-04T07:27:19.392Z,31.20
2018-09-04T07:29:47.495Z,29.42
2018-09-04T07:32:15.651Z,27.02
2018-09-04T07:34:43.863Z,30.82
2018-09-04T07:37:12.030Z,30.77
2018-09-04T07:39:40.230Z,30.12
2018-09-04T07:42:08.333Z,27.62
2018-09-04T07:44:36.497Z,27.82
2018-09-04T07:47:04.851Z,26.20
2018-09-04T07:49:32.969Z,24.15
2018-09-04T07:52:01.151Z,22.62
2018-09-04T07:54:30.152Z,23.70
2018-09-04T07:56:58.390Z,21.37
2018-09-04T07:59:26.534Z,20.43
2018-09-04T08:01:54.733Z,21.05
2018-09-04T08:04:22.902Z,22.40
2018-09-04T08:06:51.134Z,23.98
2018-09-04T08:09:19.275Z,24.05
2018-09-04T08:11:47.382Z,21.40
2018-09-04T08:14:15.550Z,22.62
2018-09-04T08:16:43.741Z,21.40
2018-09-04T08:19:11.926Z,20.70
2018-09-04T08:21:40.113Z,21.48
2018-09-04T08:24:09.134Z,21.73
2018-09-04T08:26:37.242Z,22.35
2018-09-04T08:29:05.390Z,20.48
2018-09-04T08:31:33.621Z,15.38
2018-09-04T08:34:01.748Z,13.55
2018-09-04T08:36:29.854Z,13.18
2018-09-04T08:38:58.017Z,14.90
2018-09-04T08:41:26.213Z,13.78
2018-09-04T08:43:54.417Z,15.43
2018-09-04T08:46:22.590Z,14.45
2018-09-04T08:48:50.761Z,13.48
2018-09-04T08:51:18.950Z,14.93
2018-09-04T08:53:47.131Z,12.00
2018-09-04T08:56:15.342Z,12.45
2018-09-04T08:58:43.622Z,10.85
2018-09-04T09:01:11.702Z,9.45
2018-09-04T09:03:40.458Z,11.10
2018-09-04T09:06:08.593Z,11.33
2018-09-04T09:08:36.766Z,9.15
2018-09-04T09:11:05.163Z,9.33
2018-09-04T09:13:33.254Z,9.20
2018-09-04T09:16:01.437Z,8.13
2018-09-04T09:18:29.622Z,8.90
2018-09-04T09:20:57.810Z,8.68
2018-09-04T09:23:26.005Z,9.30
2018-09-04T09:25:54.397Z,8.13
2018-09-04T09:28:22.580Z,8.20
2018-09-04T09:30:50.689Z,8.15
2018-09-04T09:33:18.854Z,7.65
2018-09-04T09:35:47.043Z,7.50
2018-09-04T09:38:15.234Z,6.87
2018-09-04T09:40:43.417Z,7.62
2018-09-04T09:43:11.598Z,8.25
2018-09-04T09:45:39.785Z,7.10
2018-09-04T09:48:07.987Z,7.33
2018-09-04T09:50:36.237Z,7.55
2018-09-04T09:53:04.443Z,7.03
2018-09-04T09:55:32.549Z,7.80
2018-09-04T09:58:00.730Z,7.15
2018-09-04T10:00:33.236Z,7.05
2018-09-04T10:03:08.735Z,5.83
2018-09-04T10:05:36.868Z,6.53
2018-09-04T10:08:05.349Z,7.05
2018-09-04T10:10:33.510Z,6.47
2018-09-04T10:13:01.629Z,7.17
2018-09-04T10:15:29.902Z,6.37
2018-09-04T10:17:58.012Z,5.80
2018-09-04T10:20:26.181Z,5.33
2018-09-04T10:22:54.359Z,5.95
2018-09-04T10:25:22.535Z,6.15
2018-09-04T10:27:50.630Z,6.03
2018-09-04T10:30:18.818Z,6.72
2018-09-04T10:32:51.435Z,5.70
2018-09-04T10:35:20.158Z,5.80
2018-09-04T10:37:48.422Z,5.92
2018-09-04T10:40:22.079Z,6.87
2018-09-04T10:42:50.190Z,6.62
2018-09-04T10:45:23.766Z,5.75
2018-09-04T10:47:52.138Z,5.55
2018-09-04T10:50:20.722Z,5.85
2018-09-04T10:52:49.032Z,6.15
2018-09-04T10:55:17.216Z,6.03
2018-09-04T10:57:45.592Z,6.50
2018-09-04T11:00:14.716Z,6.45
2018-09-04T11:02:42.861Z,6.33
2018-09-04T11:05:11.039Z,5.05
2018-09-04T11:07:39.238Z,5.20
2018-09-04T11:10:07.597Z,6.40
2018-09-04T11:12:35.712Z,6.25
2018-09-04T11:15:03.890Z,5.97
2018-09-04T11:17:32.093Z,6.00
2018-09-04T11:20:00.615Z,6.50
2018-09-04T11:22:28.739Z,6.65
2018-09-04T11:24:56.849Z,7.28
2018-09-04T11:27:25.046Z,5.92
2018-09-04T11:29:53.252Z,6.37
2018-09-04T11:32:21.350Z,5.45
2018-09-04T11:34:49.491Z,6.08
2018-09-04T11:37:17.682Z,5.92
2018-09-04T11:39:45.854Z,5.22
2018-09-04T11:42:14.308Z,5.60
2018-09-04T11:44:43.500Z,5.45
2018-09-04T11:47:12.297Z,4.70
2018-09-04T11:49:41.098Z,9.45
2018-09-04T11:52:09.497Z,4.95
2018-09-04T11:54:37.730Z,10.23
2018-09-04T11:57:05.840Z,5.25
2018-09-04T11:59:38.905Z,5.42
2018-09-04T12:02:10.040Z,5.00
2018-09-04T12:04:38.174Z,4.80
2018-09-04T12:07:06.376Z,4.42
2018-09-04T12:09:34.554Z,4.62
2018-09-04T12:12:02.754Z,5.40
2018-09-04T12:14:37.412Z,4.78
2018-09-04T12:17:07.326Z,5.50
2018-09-04T12:19:45.525Z,5.42
2018-09-04T12:22:13.724Z,5.03
2018-09-04T12:24:41.965Z,4.67
2018-09-04T12:27:10.194Z,5.40
2018-09-04T12:29:38.310Z,5.40
2018-09-04T12:32:06.510Z,5.85
2018-09-04T12:34:34.670Z,5.40
2018-09-04T12:37:02.866Z,5.22
2018-09-04T12:39:31.045Z,5.35
2018-09-04T12:41:59.238Z,5.75
2018-09-04T12:44:27.555Z,5.47
2018-09-04T12:46:55.606Z,5.28
2018-09-04T12:49:23.825Z,5.37
2018-09-04T12:51:51.994Z,6.00
2018-09-04T12:54:20.194Z,5.50
2018-09-04T12:56:48.350Z,6.17
2018-09-04T12:59:16.571Z,5.60
2018-09-04T13:01:44.706Z,5.95
2018-09-04T13:04:12.916Z,5.85
2018-09-04T13:06:41.093Z,5.97
2018-09-04T13:09:09.347Z,6.08
2018-09-04T13:11:37.468Z,5.95
2018-09-04T13:14:06.090Z,6.53
2018-09-04T13:16:34.250Z,6.05
2018-09-04T13:19:02.438Z,6.22
2018-09-04T13:21:30.618Z,6.83
2018-09-04T13:23:58.918Z,8.25
2018-09-04T13:26:27.172Z,8.08
2018-09-04T13:28:55.338Z,8.03
2018-09-04T13:31:23.474Z,7.78
2018-09-04T13:33:51.670Z,7.60
2018-09-04T13:36:19.865Z,8.38
2018-09-04T13:38:47.971Z,7.62
2018-09-04T13:41:16.122Z,8.05
2018-09-04T13:43:44.323Z,8.05
2018-09-04T13:46:12.489Z,7.62
2018-09-04T13:48:40.686Z,7.08
2018-09-04T13:51:09.190Z,6.67
2018-09-04T13:53:37.377Z,7.30
2018-09-04T13:56:05.769Z,6.95
2018-09-04T13:58:33.953Z,8.18
2018-09-04T14:01:02.121Z,8.10
2018-09-04T14:03:30.337Z,7.97
2018-09-04T14:05:58.515Z,8.00
2018-09-04T14:08:26.693Z,7.58
2018-09-04T14:10:54.963Z,8.35
2018-09-04T14:13:23.282Z,8.63
2018-09-04T14:15:54.981Z,8.03
2018-09-04T14:18:23.134Z,8.80
2018-09-04T14:20:51.331Z,7.95
2018-09-04T14:23:19.495Z,7.47
2018-09-04T14:25:47.671Z,7.85
2018-09-04T14:28:40.967Z,8.25
2018-09-04T14:30:44.390Z,8.45
2018-09-04T14:33:12.530Z,8.40
2018-09-04T14:35:40.722Z,8.78
2018-09-04T14:38:08.914Z,8.15
2018-09-04T14:40:37.098Z,8.90
2018-09-04T14:43:05.470Z,9.15
2018-09-04T14:45:33.583Z,8.58
2018-09-04T14:48:01.792Z,8.23
2018-09-04T14:50:29.959Z,7.75
2018-09-04T14:52:58.150Z,7.47
2018-09-04T14:55:26.334Z,8.10
2018-09-04T14:57:54.611Z,8.03
2018-09-04T15:00:22.698Z,8.78
2018-09-04T15:02:50.875Z,9.20
2018-09-04T15:05:19.062Z,7.97
2018-09-04T15:07:47.899Z,7.90
2018-09-04T15:10:16.074Z,8.48
2018-09-04T15:12:44.162Z,8.33
2018-09-04T15:15:12.350Z,9.15
2018-09-04T15:17:40.523Z,8.35
2018-09-04T15:20:08.700Z,8.68
2018-09-04T15:22:37.046Z,8.98
2018-09-04T15:25:05.185Z,8.88
2018-09-04T15:27:33.364Z,8.83
2018-09-04T15:30:01.554Z,8.18
2018-09-04T15:32:29.739Z,8.38
2018-09-04T15:34:57.969Z,8.80
2018-09-04T15:37:26.110Z,7.87
2018-09-04T15:39:54.558Z,8.30
2018-09-04T15:42:22.699Z,8.65
2018-09-04T15:44:50.886Z,9.15
2018-09-04T15:47:19.063Z,11.40
2018-09-04T15:49:48.314Z,9.95
2018-09-04T15:52:17.150Z,9.23
2018-09-04T15:54:45.403Z,9.03
2018-09-04T15:57:14.094Z,9.13
2018-09-04T15:59:42.264Z,9.45
2018-09-04T16:02:10.429Z,9.45
2018-09-04T16:04:38.525Z,9.68
2018-09-04T16:07:07.045Z,9.48
2018-09-04T16:09:35.283Z,9.60
2018-09-04T16:12:03.390Z,9.05
2018-09-04T16:14:31.589Z,9.45
2018-09-04T16:16:59.893Z,10.18
2018-09-04T16:19:28.063Z,10.10
2018-09-04T16:21:56.371Z,9.83
2018-09-04T16:24:24.646Z,8.50
2018-09-04T16:26:52.813Z,9.23
2018-09-04T16:29:21.244Z,9.40
2018-09-04T16:31:49.395Z,9.33
2018-09-04T16:34:17.707Z,9.98
2018-09-04T16:36:45.908Z,9.33
2018-09-04T16:39:16.011Z,10.25
2018-09-04T16:41:44.204Z,9.95
2018-09-04T16:44:12.508Z,9.18
2018-09-04T16:46:40.680Z,9.58
2018-09-04T16:49:08.858Z,9.15
2018-09-04T16:51:37.053Z,9.28
2018-09-04T16:54:05.227Z,9.35
2018-09-04T16:56:33.422Z,9.45
2018-09-04T16:59:01.605Z,8.88
2018-09-04T17:01:29.687Z,9.80
2018-09-04T17:03:57.874Z,9.78
2018-09-04T17:06:26.070Z,9.78
2018-09-04T17:08:54.257Z,9.00
2018-09-04T17:11:22.437Z,9.15
2018-09-04T17:13:50.634Z,8.98
2018-09-04T17:16:18.814Z,9.25
2018-09-04T17:18:46.994Z,9.38
2018-09-04T17:21:15.190Z,8.43
2018-09-04T17:23:43.374Z,8.70
2018-09-04T17:26:11.557Z,8.93
2018-09-04T17:28:39.757Z,9.13
2018-09-04T17:31:07.942Z,9.20
2018-09-04T17:33:36.115Z,8.90
2018-09-04T17:36:04.319Z,9.65
2018-09-04T17:38:32.622Z,9.48
2018-09-04T17:41:00.785Z,8.88
2018-09-04T17:43:28.977Z,9.75
2018-09-04T17:45:57.167Z,9.13
2018-09-04T17:48:25.358Z,8.40
2018-09-04T17:50:53.541Z,8.38
2018-09-04T17:53:21.710Z,8.50
2018-09-04T17:55:49.907Z,8.55
2018-09-04T17:58:18.105Z,9.35
2018-09-04T18:00:46.579Z,9.53
2018-09-04T18:03:14.663Z,10.23
2018-09-04T18:05:42.956Z,9.30
2018-09-04T18:08:11.029Z,9.08
2018-09-04T18:10:39.242Z,8.50
2018-09-04T18:13:07.414Z,7.80
2018-09-04T18:15:35.494Z,7.80
2018-09-04T18:18:03.690Z,7.53
2018-09-04T18:20:31.857Z,8.00
2018-09-04T18:23:00.071Z,7.42
2018-09-04T18:25:28.789Z,7.50
2018-09-04T18:27:56.978Z,7.25
2018-09-04T18:30:25.150Z,6.40
2018-09-04T18:32:53.322Z,6.35
2018-09-04T18:35:21.495Z,6.47
2018-09-04T18:37:49.690Z,6.95
2018-09-04T18:40:17.899Z,6.42
2018-09-04T18:42:46.078Z,6.60
2018-09-04T18:45:25.662Z,6.65
2018-09-04T18:47:54.150Z,6.70
2018-09-04T18:50:22.318Z,6.97
2018-09-04T18:52:50.518Z,6.17
2018-09-04T18:55:18.682Z,6.00
2018-09-04T18:57:46.870Z,6.45
2018-09-04T19:00:15.039Z,6.40
2018-09-04T19:02:43.338Z,6.20
2018-09-04T19:05:11.423Z,6.25
2018-09-04T19:07:39.612Z,6.35
2018-09-04T19:10:07.789Z,6.00
2018-09-04T19:12:35.979Z,6.33
2018-09-04T19:15:04.168Z,6.37
2018-09-04T19:17:32.369Z,6.22
2018-09-04T19:20:00.534Z,6.37
2018-09-04T19:22:28.743Z,6.83
2018-09-04T19:24:56.932Z,6.08
2018-09-04T19:27:25.118Z,5.90
2018-09-04T19:29:53.294Z,6.25
2018-09-04T19:32:21.490Z,6.37
2018-09-04T19:34:49.670Z,6.35
2018-09-04T19:37:17.867Z,5.97
2018-09-04T19:39:46.049Z,6.15
2018-09-04T19:42:14.242Z,5.95
2018-09-04T19:44:42.421Z,6.35
2018-09-04T19:47:10.630Z,6.58
2018-09-04T19:49:38.862Z,6.78
2018-09-04T19:52:07.014Z,6.05
2018-09-04T19:54:35.165Z,6.55
2018-09-04T19:57:03.382Z,6.60
2018-09-04T19:59:31.541Z,6.00
2018-09-04T20:01:59.758Z,5.87
2018-09-04T20:04:27.956Z,6.58
2018-09-04T20:06:56.121Z,6.70
2018-09-04T20:09:24.290Z,5.97
2018-09-04T20:11:52.486Z,6.30
2018-09-04T20:14:20.666Z,6.60
2018-09-04T20:16:48.854Z,6.40
2018-09-04T20:19:16.952Z,6.50
2018-09-04T20:21:45.170Z,5.92
2018-09-04T20:24:13.294Z,6.53
2018-09-04T20:26:41.478Z,6.00
2018-09-04T20:29:09.667Z,6.20
2018-09-04T20:31:37.853Z,5.92
2018-09-04T20:34:06.047Z,6.03
2018-09-04T20:36:34.257Z,6.53
2018-09-04T20:39:02.425Z,6.20
2018-09-04T20:41:30.608Z,6.50
2018-09-04T20:43:58.810Z,6.17
2018-09-04T20:46:26.973Z,5.87
2018-09-04T20:48:55.182Z,6.85
2018-09-04T20:51:23.351Z,6.45
2018-09-04T20:53:51.538Z,5.72
2018-09-04T20:56:19.734Z,5.85
2018-09-04T20:58:59.386Z,6.10
2018-09-04T21:01:39.173Z,5.97
2018-09-04T21:04:18.742Z,5.25
2018-09-04T21:06:46.202Z,5.92
2018-09-04T21:09:25.897Z,5.33
2018-09-04T21:11:53.981Z,5.60
2018-09-04T21:14:22.102Z,5.53
2018-09-04T21:16:50.857Z,6.28
2018-09-04T21:19:19.024Z,5.87
2018-09-04T21:21:47.158Z,5.67
2018-09-04T21:24:15.634Z,6.33
2018-09-04T21:26:43.747Z,6.40
2018-09-04T21:29:11.953Z,5.95
2018-09-04T21:31:40.131Z,6.12
2018-09-04T21:34:08.327Z,6.28
2018-09-04T21:36:36.518Z,6.83
2018-09-04T21:41:40.050Z,6.67
2018-09-04T21:44:08.265Z,6.92
2018-09-04T21:46:36.425Z,8.50
2018-09-04T21:49:04.656Z,7.58
2018-09-04T21:51:32.801Z,7.28
2018-09-04T21:54:00.985Z,7.47
2018-09-04T21:56:29.177Z,7.20
2018-09-04T21:58:57.365Z,7.35
2018-09-04T22:01:25.546Z,7.20
2018-09-04T22:03:53.751Z,7.17
2018-09-04T22:06:21.917Z,7.20
2018-09-04T22:08:50.094Z,7.75
2018-09-04T22:11:18.352Z,7.10
2018-09-04T22:13:46.474Z,6.65
2018-09-04T22:16:14.674Z,7.22
2018-09-04T22:18:42.854Z,8.08
2018-09-04T22:21:11.046Z,7.92
2018-09-04T22:23:39.208Z,7.83
2018-09-04T22:26:07.637Z,7.75
2018-09-04T22:28:36.231Z,7.60
2018-09-04T22:31:04.579Z,8.05
2018-09-04T22:33:32.685Z,7.62
2018-09-04T22:36:00.915Z,8.23
2018-09-04T22:38:29.042Z,7.62
2018-09-04T22:40:58.165Z,8.10
2018-09-04T22:43:26.337Z,8.23
2018-09-04T22:45:54.534Z,7.50
2018-09-04T22:48:22.711Z,7.67
2018-09-04T22:50:56.362Z,9.03
2018-09-04T22:53:24.514Z,7.55
2018-09-04T22:55:52.597Z,7.55
2018-09-04T22:58:20.807Z,8.15
2018-09-04T23:00:48.983Z,7.83
2018-09-04T23:03:17.178Z,8.93
2018-09-04T23:05:45.358Z,8.78
2018-09-04T23:08:13.531Z,8.43
2018-09-04T23:10:41.637Z,8.88
2018-09-04T23:13:09.836Z,7.90
2018-09-04T23:15:43.458Z,9.03
2018-09-04T23:18:12.557Z,9.10
2018-09-04T23:20:41.057Z,9.23
2018-09-04T23:23:09.454Z,8.58
2018-09-04T23:25:37.643Z,8.83
2018-09-04T23:28:05.922Z,9.10
2018-09-04T23:30:34.110Z,8.75
2018-09-04T23:33:02.274Z,9.68
2018-09-04T23:35:30.465Z,9.80
2018-09-04T23:37:58.778Z,8.15
2018-09-04T23:40:26.940Z,9.18
2018-09-04T23:42:55.122Z,9.48
2018-09-04T23:45:23.301Z,9.68
2018-09-04T23:47:51.494Z,9.40
2018-09-04T23:50:19.681Z,9.75
2018-09-04T23:52:47.867Z,9.88
2018-09-04T23:55:16.077Z,9.50
2018-09-04T23:57:44.247Z,9.03
